createdAt,value
2018-04-18T00:00:53.315Z,14.87
2018-04-18T00:03:22.234Z,24.50
2018-04-18T00:05:50.376Z,12.33
2018-04-18T00:08:18.534Z,17.60
2018-04-18T00:10:46.685Z,19.23
2018-04-18T00:13:15.635Z,16.67
2018-04-18T00:15:43.846Z,20.83
2018-04-18T00:18:12.021Z,17.03
2018-04-18T00:20:40.169Z,16.97
2018-04-18T00:23:08.339Z,16.77
2018-04-18T00:25:36.547Z,19.40
2018-04-18T00:28:04.737Z,13.70
2018-04-18T00:30:32.880Z,19.20
2018-04-18T00:33:01.074Z,15.17
2018-04-18T00:35:29.279Z,19.70
2018-04-18T00:37:58.253Z,19.47
2018-04-18T00:40:26.415Z,24.30
2018-04-18T00:42:54.579Z,20.10
2018-04-18T00:45:22.755Z,17.90
2018-04-18T00:47:50.917Z,17.00
2018-04-18T00:50:19.146Z,19.40
2018-04-18T00:52:47.302Z,21.00
2018-04-18T00:55:15.467Z,20.40
2018-04-18T00:57:43.606Z,12.80
2018-04-18T01:00:11.778Z,19.13
2018-04-18T01:02:39.961Z,13.60
2018-04-18T01:05:08.111Z,21.60
2018-04-18T01:07:37.028Z,16.87
2018-04-18T01:10:05.181Z,21.60
2018-04-18T01:12:34.095Z,18.43
2018-04-18T01:24:24.938Z,18.33
2018-04-18T01:29:52.183Z,28.87
2018-04-18T01:32:20.406Z,22.60
2018-04-18T01:34:48.554Z,15.87
2018-04-18T01:37:16.693Z,16.63
2018-04-18T01:39:44.861Z,18.00
2018-04-18T01:42:13.022Z,19.37
2018-04-18T01:44:41.190Z,18.87
2018-04-18T01:47:09.352Z,21.70
2018-04-18T01:49:37.734Z,15.00
2018-04-18T01:52:05.908Z,16.70
2018-04-18T01:54:34.123Z,19.00
2018-04-18T01:57:03.033Z,20.30
2018-04-18T01:59:31.189Z,19.13
2018-04-18T02:02:00.104Z,16.73
2018-04-18T02:04:28.278Z,15.30
2018-04-18T02:06:56.428Z,15.97
2018-04-18T02:09:25.367Z,15.83
2018-04-18T02:11:53.556Z,20.77
2018-04-18T02:14:21.714Z,17.80
2018-04-18T02:16:49.871Z,16.23
2018-04-18T02:19:18.009Z,19.73
2018-04-18T02:21:46.932Z,16.73
2018-04-18T02:24:15.081Z,17.40
2018-04-18T02:26:44.014Z,14.17
2018-04-18T02:29:12.189Z,21.83
2018-04-18T02:31:40.401Z,20.27
2018-04-18T02:40:37.493Z,23.17
2018-04-18T02:43:38.443Z,11.83
2018-04-18T02:49:08.188Z,22.13
2018-04-18T02:51:36.439Z,16.40
2018-04-18T02:54:05.335Z,17.03
2018-04-18T03:05:35.762Z,19.40
2018-04-18T03:08:03.927Z,17.93
2018-04-18T03:10:32.091Z,18.00
2018-04-18T03:13:00.223Z,15.20
2018-04-18T03:15:29.134Z,22.63
2018-04-18T03:17:58.030Z,24.97
2018-04-18T03:20:26.193Z,20.70
2018-04-18T03:22:55.091Z,25.80
2018-04-18T03:25:23.241Z,17.00
2018-04-18T03:27:52.139Z,17.10
2018-04-18T03:30:21.195Z,25.10
2018-04-18T03:32:49.370Z,16.63
2018-04-18T03:35:17.551Z,15.10
2018-04-18T03:37:45.706Z,19.77
2018-04-18T03:40:13.889Z,18.30
2018-04-18T03:42:42.039Z,26.30
2018-04-18T03:45:10.209Z,16.03
2018-04-18T03:47:38.425Z,29.43
2018-04-18T03:50:06.588Z,18.67
2018-04-18T03:52:34.772Z,28.13
2018-04-18T03:55:02.929Z,20.43
2018-04-18T03:57:31.077Z,18.73
2018-04-18T03:59:59.223Z,19.90
2018-04-18T04:02:28.108Z,16.30
2018-04-18T04:04:57.039Z,18.83
2018-04-18T04:07:25.175Z,21.30
2018-04-18T04:09:53.442Z,26.23
2018-04-18T04:12:21.835Z,19.23
2018-04-18T04:14:49.986Z,26.23
2018-04-18T04:17:36.632Z,18.27
2018-04-18T04:20:22.622Z,18.53
2018-04-18T04:23:09.357Z,23.87
2018-04-18T04:25:37.606Z,22.23
2018-04-18T04:28:05.758Z,19.80
2018-04-18T04:30:33.937Z,32.73
2018-04-18T04:33:02.118Z,27.37
2018-04-18T04:35:30.255Z,30.73
2018-04-18T04:37:59.183Z,28.03
2018-04-18T04:40:27.358Z,26.30
2018-04-18T04:42:55.542Z,21.30
2018-04-18T04:45:23.688Z,21.93
2018-04-18T04:47:51.862Z,20.10
2018-04-18T04:50:20.008Z,22.43
2018-04-18T04:52:48.905Z,24.47
2018-04-18T04:55:17.832Z,36.27
2018-04-18T04:57:45.999Z,22.50
2018-04-18T05:00:14.183Z,24.80
2018-04-18T05:02:42.331Z,31.77
2018-04-18T05:05:10.499Z,25.17
2018-04-18T05:07:38.730Z,38.80
2018-04-18T05:10:06.905Z,20.50
2018-04-18T05:12:35.064Z,22.40
2018-04-18T05:15:03.264Z,23.40
2018-04-18T05:17:32.200Z,29.27
2018-04-18T05:20:00.395Z,28.23
2018-04-18T05:22:28.537Z,27.67
2018-04-18T05:24:56.694Z,39.40
2018-04-18T05:27:25.062Z,23.60
2018-04-18T05:29:53.987Z,29.07
2018-04-18T05:32:22.134Z,24.03
2018-04-18T05:34:50.307Z,29.70
2018-04-18T05:37:18.463Z,27.30
2018-04-18T05:39:47.415Z,37.13
2018-04-18T05:42:15.557Z,24.07
2018-04-18T05:44:46.004Z,19.40
2018-04-18T05:47:14.177Z,23.80
2018-04-18T05:49:42.410Z,36.63
2018-04-18T05:52:10.672Z,38.70
2018-04-18T05:54:38.816Z,29.07
2018-04-18T05:57:06.973Z,33.63
2018-04-18T05:59:35.136Z,29.80
2018-04-18T06:02:03.314Z,26.40
2018-04-18T06:04:31.493Z,23.53
2018-04-18T06:06:59.673Z,27.40
2018-04-18T06:09:27.867Z,31.80
2018-04-18T06:11:56.803Z,26.40
2018-04-18T06:14:24.972Z,30.40
2018-04-18T06:16:53.118Z,25.40
2018-04-18T06:19:21.397Z,29.57
2018-04-18T06:21:49.488Z,22.70
2018-04-18T06:24:19.954Z,26.83
2018-04-18T06:26:48.103Z,34.23
2018-04-18T06:29:16.298Z,26.37
2018-04-18T06:31:44.507Z,34.73
2018-04-18T06:34:14.320Z,32.63
2018-04-18T06:36:43.287Z,26.87
2018-04-18T06:39:13.786Z,29.43
2018-04-18T06:41:47.709Z,35.30
2018-04-18T06:44:19.524Z,27.10
2018-04-18T06:46:47.710Z,31.33
2018-04-18T06:49:15.883Z,32.37
2018-04-18T06:51:45.357Z,34.10
2018-04-18T06:54:14.280Z,35.40
2018-04-18T06:56:44.420Z,28.93
2018-04-18T06:59:12.702Z,26.90
2018-04-18T07:01:41.052Z,28.90
2018-04-18T07:04:09.208Z,31.27
2018-04-18T07:06:38.123Z,31.93
2018-04-18T07:09:06.263Z,28.37
2018-04-18T07:11:35.217Z,34.13
2018-04-18T07:14:03.393Z,32.23
2018-04-18T07:16:31.566Z,34.57
2018-04-18T07:18:59.713Z,37.00
2018-04-18T07:21:27.960Z,34.97
2018-04-18T07:23:56.103Z,43.10
2018-04-18T07:26:24.257Z,31.83
2018-04-18T07:28:53.231Z,36.10
2018-04-18T07:31:21.431Z,41.33
2018-04-18T07:33:49.573Z,34.00
2018-04-18T07:36:17.721Z,39.40
2018-04-18T07:38:45.873Z,37.33
2018-04-18T07:41:14.083Z,36.40
2018-04-18T07:43:42.448Z,32.97
2018-04-18T07:46:10.604Z,40.10
2018-04-18T07:48:38.771Z,33.03
2018-04-18T07:51:07.685Z,31.97
2018-04-18T07:53:35.844Z,30.20
2018-04-18T07:56:04.054Z,28.10
2018-04-18T07:58:32.227Z,38.37
2018-04-18T08:01:00.468Z,35.43
2018-04-18T08:03:28.634Z,33.57
2018-04-18T08:05:57.566Z,31.70
2018-04-18T08:08:25.706Z,29.90
2018-04-18T08:10:53.857Z,37.60
2018-04-18T08:13:22.060Z,39.03
2018-04-18T08:15:50.223Z,30.97
2018-04-18T08:18:18.549Z,32.80
2018-04-18T08:20:46.718Z,31.87
2018-04-18T08:23:14.929Z,26.90
2018-04-18T08:25:43.098Z,23.97
2018-04-18T08:28:12.118Z,38.37
2018-04-18T08:30:40.285Z,28.90
2018-04-18T08:33:08.477Z,27.40
2018-04-18T08:35:36.729Z,23.60
2018-04-18T08:38:05.044Z,21.50
2018-04-18T08:40:33.956Z,34.13
2018-04-18T08:43:02.123Z,16.10
2018-04-18T08:45:30.279Z,24.27
2018-04-18T08:47:58.427Z,21.63
2018-04-18T08:50:26.661Z,17.20
2018-04-18T08:52:54.811Z,23.17
2018-04-18T08:55:22.954Z,18.83
2018-04-18T08:57:51.153Z,15.20
2018-04-18T09:00:19.299Z,14.00
2018-04-18T09:02:47.497Z,17.53
2018-04-18T09:05:15.673Z,12.70
2018-04-18T09:07:43.823Z,9.33
2018-04-18T09:10:11.961Z,11.93
2018-04-18T09:12:40.881Z,13.93
2018-04-18T09:15:09.095Z,19.30
2018-04-18T09:17:37.356Z,10.80
2018-04-18T09:20:05.605Z,15.93
2018-04-18T09:22:33.728Z,11.30
2018-04-18T09:25:01.918Z,12.67
2018-04-18T09:27:30.120Z,10.07
2018-04-18T09:29:58.267Z,12.13
2018-04-18T09:32:26.452Z,13.13
2018-04-18T09:34:55.263Z,12.23
2018-04-18T09:37:23.408Z,15.13
2018-04-18T09:39:51.608Z,11.63
2018-04-18T09:42:19.849Z,15.47
2018-04-18T09:44:48.035Z,12.80
2018-04-18T09:47:16.187Z,8.83
2018-04-18T09:49:44.466Z,11.67
2018-04-18T09:52:13.405Z,11.00
2018-04-18T09:54:41.577Z,10.43
2018-04-18T09:57:09.711Z,9.90
2018-04-18T09:59:38.632Z,7.47
2018-04-18T10:02:12.194Z,10.07
2018-04-18T10:04:45.333Z,6.07
2018-04-18T10:07:13.545Z,6.63
2018-04-18T10:09:41.704Z,6.80
2018-04-18T10:12:10.664Z,10.83
2018-04-18T10:14:38.825Z,11.63
2018-04-18T10:17:07.011Z,11.00
2018-04-18T10:19:35.175Z,6.17
2018-04-18T10:22:03.353Z,6.13
2018-04-18T10:24:31.501Z,4.30
2018-04-18T10:26:59.814Z,7.40
2018-04-18T10:29:27.992Z,4.87
2018-04-18T10:31:56.298Z,6.10
2018-04-18T10:34:24.452Z,6.37
2018-04-18T10:36:52.713Z,4.30
2018-04-18T10:39:20.894Z,4.00
2018-04-18T10:41:49.085Z,17.43
2018-04-18T10:44:18.024Z,5.60
2018-04-18T10:46:46.153Z,9.73
2018-04-18T10:49:14.284Z,7.33
2018-04-18T10:51:42.470Z,12.53
2018-04-18T10:54:10.698Z,5.17
2018-04-18T10:56:38.889Z,7.73
2018-04-18T10:59:07.092Z,5.83
2018-04-18T11:01:35.234Z,6.43
2018-04-18T11:04:16.782Z,6.00
2018-04-18T11:06:45.714Z,9.40
2018-04-18T11:09:14.029Z,10.00
2018-04-18T11:11:42.188Z,4.50
2018-04-18T11:14:11.179Z,8.63
2018-04-18T11:16:39.326Z,3.77
2018-04-18T11:19:07.470Z,9.90
2018-04-18T11:21:36.385Z,7.17
2018-04-18T11:24:04.531Z,6.60
2018-04-18T11:26:34.343Z,9.20
2018-04-18T11:29:03.921Z,13.53
2018-04-18T11:31:32.098Z,9.00
2018-04-18T11:34:00.258Z,4.83
2018-04-18T11:36:28.451Z,9.67
2018-04-18T11:38:56.613Z,5.80
2018-04-18T11:41:24.751Z,8.47
2018-04-18T11:43:52.890Z,8.20
2018-04-18T11:46:21.817Z,6.40
2018-04-18T11:48:50.021Z,11.80
2018-04-18T11:51:18.356Z,7.13
2018-04-18T11:53:46.641Z,9.13
2018-04-18T11:56:14.815Z,11.63
2018-04-18T11:58:42.989Z,7.77
2018-04-18T12:01:11.164Z,5.50
2018-04-18T12:03:39.322Z,13.60
2018-04-18T12:06:07.479Z,4.17
2018-04-18T12:08:35.604Z,5.63
2018-04-18T12:11:03.752Z,6.70
2018-04-18T12:13:31.916Z,11.53
2018-04-18T12:16:00.085Z,6.80
2018-04-18T12:18:28.238Z,9.83
2018-04-18T12:20:57.166Z,9.97
2018-04-18T12:23:25.356Z,8.03
2018-04-18T12:25:53.549Z,9.57
2018-04-18T12:28:21.701Z,10.47
2018-04-18T12:30:49.851Z,6.97
2018-04-18T12:33:17.990Z,12.03
2018-04-18T12:35:46.274Z,10.47
2018-04-18T12:38:14.406Z,9.30
2018-04-18T12:40:42.658Z,7.83
2018-04-18T12:43:11.826Z,6.83
2018-04-18T12:45:39.960Z,6.60
2018-04-18T12:48:08.902Z,11.27
2018-04-18T12:50:37.092Z,10.83
2018-04-18T12:53:05.271Z,6.67
2018-04-18T12:55:33.459Z,13.07
2018-04-18T12:58:01.693Z,7.77
2018-04-18T13:00:29.993Z,9.30
2018-04-18T13:02:59.035Z,6.53
2018-04-18T13:05:27.222Z,12.30
2018-04-18T13:07:55.354Z,11.90
2018-04-18T13:10:23.512Z,11.57
2018-04-18T13:12:51.645Z,5.43
2018-04-18T13:15:19.776Z,9.30
2018-04-18T13:17:47.910Z,9.30
2018-04-18T13:20:16.087Z,15.53
2018-04-18T13:22:44.222Z,9.17
2018-04-18T13:25:12.348Z,15.57
2018-04-18T13:27:40.511Z,7.83
2018-04-18T13:30:08.667Z,7.23
2018-04-18T13:32:36.942Z,10.87
2018-04-18T13:35:05.147Z,9.40
2018-04-18T13:37:33.291Z,6.90
2018-04-18T13:40:01.540Z,7.80
2018-04-18T13:42:29.685Z,10.27
2018-04-18T13:44:59.272Z,8.90
2018-04-18T13:47:27.440Z,6.37
2018-04-18T13:49:55.582Z,16.00
2018-04-18T13:52:23.736Z,8.30
2018-04-18T13:54:51.885Z,6.50
2018-04-18T13:57:20.062Z,9.67
2018-04-18T13:59:48.267Z,7.83
2018-04-18T14:02:16.415Z,8.17
2018-04-18T14:04:44.544Z,12.57
2018-04-18T14:07:12.730Z,10.10
2018-04-18T14:09:40.911Z,6.43
2018-04-18T14:12:10.269Z,11.70
2018-04-18T14:14:38.416Z,11.27
2018-04-18T14:17:06.573Z,11.10
2018-04-18T14:19:34.755Z,16.33
2018-04-18T14:22:02.916Z,8.03
2018-04-18T14:24:31.084Z,8.83
2018-04-18T14:27:00.070Z,6.53
2018-04-18T14:29:29.016Z,11.00
2018-04-18T14:31:57.188Z,11.23
2018-04-18T14:34:25.378Z,7.37
2018-04-18T14:36:53.683Z,11.33
2018-04-18T14:39:22.598Z,8.70
2018-04-18T14:41:50.859Z,12.13
2018-04-18T14:44:19.802Z,10.00
2018-04-18T14:46:47.967Z,5.87
2018-04-18T14:49:16.275Z,6.50
2018-04-18T14:51:44.434Z,8.93
2018-04-18T14:54:12.634Z,10.37
2018-04-18T14:56:40.767Z,11.47
2018-04-18T14:59:09.051Z,12.30
2018-04-18T15:01:37.236Z,7.37
2018-04-18T15:04:05.448Z,11.17
2018-04-18T15:06:33.655Z,6.37
2018-04-18T15:09:01.863Z,11.27
2018-04-18T15:11:30.023Z,10.43
2018-04-18T15:13:58.232Z,8.37
2018-04-18T15:16:27.203Z,11.50
2018-04-18T15:18:55.342Z,8.53
2018-04-18T15:21:23.538Z,16.53
2018-04-18T15:23:51.684Z,10.03
2018-04-18T15:26:19.858Z,12.30
2018-04-18T15:28:48.026Z,7.73
2018-04-18T15:31:16.214Z,8.10
2018-04-18T15:33:44.402Z,9.00
2018-04-18T15:36:12.561Z,13.40
2018-04-18T15:38:40.713Z,8.10
2018-04-18T15:41:08.892Z,5.83
2018-04-18T15:43:37.032Z,10.47
2018-04-18T15:46:05.236Z,12.20
2018-04-18T15:48:33.383Z,12.83
2018-04-18T15:51:01.554Z,10.63
2018-04-18T15:53:29.726Z,7.10
2018-04-18T15:55:58.636Z,11.07
2018-04-18T15:58:26.886Z,13.90
2018-04-18T16:00:55.852Z,11.50
2018-04-18T16:03:24.046Z,17.53
2018-04-18T16:05:52.226Z,8.70
2018-04-18T16:08:21.142Z,8.80
2018-04-18T16:10:49.293Z,12.97
2018-04-18T16:13:17.530Z,11.13
2018-04-18T16:15:45.695Z,6.60
2018-04-18T16:18:13.939Z,13.43
2018-04-18T16:20:42.134Z,7.50
2018-04-18T16:23:10.359Z,10.73
2018-04-18T16:25:38.599Z,12.23
2018-04-18T16:28:06.764Z,10.73
2018-04-18T16:30:41.787Z,11.77
2018-04-18T16:33:09.929Z,11.13
2018-04-18T16:35:38.161Z,10.23
2018-04-18T16:38:06.355Z,9.97
2018-04-18T16:40:34.487Z,9.37
2018-04-18T16:43:02.690Z,6.07
2018-04-18T16:45:30.919Z,13.70
2018-04-18T16:47:59.049Z,13.60
2018-04-18T16:50:27.966Z,8.37
2018-04-18T16:52:56.142Z,12.47
2018-04-18T16:55:24.300Z,12.27
2018-04-18T16:57:52.431Z,8.57
2018-04-18T17:00:20.587Z,12.67
2018-04-18T17:02:48.753Z,11.17
2018-04-18T17:05:16.887Z,11.90
2018-04-18T17:07:45.065Z,13.63
2018-04-18T17:10:13.215Z,11.70
2018-04-18T17:12:42.138Z,12.43
2018-04-18T17:15:10.338Z,11.90
2018-04-18T17:17:38.542Z,14.67
2018-04-18T17:20:06.745Z,13.17
2018-04-18T17:22:34.930Z,14.67
2018-04-18T17:25:03.083Z,14.00
2018-04-18T17:27:31.248Z,18.30
2018-04-18T17:29:59.390Z,11.73
2018-04-18T17:32:27.553Z,11.33
2018-04-18T17:34:55.784Z,11.10
2018-04-18T17:37:23.910Z,9.63
2018-04-18T17:39:52.530Z,17.70
2018-04-18T17:42:21.954Z,10.27
2018-04-18T17:44:50.132Z,11.90
2018-04-18T17:47:18.333Z,9.77
2018-04-18T17:49:46.520Z,12.67
2018-04-18T17:52:14.691Z,18.17
2018-04-18T17:54:42.861Z,10.07
2018-04-18T17:57:11.021Z,10.50
2018-04-18T17:59:39.179Z,22.50
2018-04-18T18:02:08.754Z,17.87
2018-04-18T18:04:36.990Z,11.80
2018-04-18T18:07:05.154Z,18.23
2018-04-18T18:09:33.330Z,9.27
2018-04-18T18:12:01.505Z,16.47
2018-04-18T18:14:29.637Z,11.00
2018-04-18T18:16:57.790Z,11.63
2018-04-18T18:19:25.959Z,13.60
2018-04-18T18:21:54.203Z,11.23
2018-04-18T18:24:23.090Z,9.67
2018-04-18T18:26:51.313Z,18.90
2018-04-18T18:29:19.527Z,12.70
2018-04-18T18:31:47.706Z,17.20
2018-04-18T18:34:15.859Z,9.83
2018-04-18T18:36:44.019Z,15.57
2018-04-18T18:39:12.197Z,22.03
2018-04-18T18:41:40.386Z,10.70
2018-04-18T18:44:08.561Z,14.23
2018-04-18T18:46:36.785Z,14.30
2018-04-18T18:49:05.003Z,8.93
2018-04-18T18:51:33.180Z,13.03
2018-04-18T18:54:01.339Z,17.47
2018-04-18T18:56:30.358Z,13.93
2018-04-18T18:58:58.539Z,13.13
2018-04-18T19:01:27.569Z,15.27
2018-04-18T19:03:55.942Z,13.80
2018-04-18T19:06:24.118Z,11.90
2018-04-18T19:08:52.310Z,12.43
2018-04-18T19:11:20.503Z,10.30
2018-04-18T19:13:48.655Z,13.90
2018-04-18T19:16:16.821Z,15.73
2018-04-18T19:18:45.041Z,8.77
2018-04-18T19:21:13.200Z,17.43
2018-04-18T19:23:41.381Z,11.80
2018-04-18T19:26:09.555Z,13.30
2018-04-18T19:28:37.762Z,17.00
2018-04-18T19:31:05.906Z,12.50
2018-04-18T19:33:34.091Z,13.40
2018-04-18T19:36:02.594Z,20.63
2018-04-18T19:38:30.795Z,17.77
2018-04-18T19:40:59.016Z,19.90
2018-04-18T19:43:27.165Z,24.67
2018-04-18T19:45:55.380Z,23.03
2018-04-18T19:48:24.298Z,18.67
2018-04-18T19:50:52.450Z,32.60
2018-04-18T19:53:20.598Z,18.23
2018-04-18T19:55:49.583Z,22.77
2018-04-18T19:58:17.754Z,21.57
2018-04-18T20:00:45.938Z,16.03
2018-04-18T20:03:15.179Z,10.47
2018-04-18T20:05:43.366Z,14.33
2018-04-18T20:08:11.554Z,17.97
2018-04-18T20:10:39.834Z,12.90
2018-04-18T20:13:08.040Z,13.53
2018-04-18T20:15:36.998Z,15.13
2018-04-18T20:18:05.160Z,12.80
2018-04-18T20:20:33.348Z,12.40
2018-04-18T20:23:01.568Z,14.43
2018-04-18T20:25:29.763Z,12.73
2018-04-18T20:27:57.925Z,11.67
2018-04-18T20:30:26.103Z,11.30
2018-04-18T20:32:54.331Z,11.93
2018-04-18T20:35:22.479Z,13.70
2018-04-18T20:37:50.654Z,10.83
2018-04-18T20:40:18.838Z,10.57
2018-04-18T20:42:56.499Z,10.33
2018-04-18T20:45:24.683Z,10.83
2018-04-18T20:47:53.666Z,9.23
2018-04-18T20:50:21.885Z,8.70
2018-04-18T20:52:50.011Z,7.43
2018-04-18T20:55:18.186Z,10.07
2018-04-18T20:57:46.361Z,12.93
2018-04-18T21:00:14.620Z,9.33
2018-04-18T21:02:42.851Z,13.13
2018-04-18T21:05:11.049Z,10.23
2018-04-18T21:07:39.193Z,8.47
2018-04-18T21:10:07.389Z,12.03
2018-04-18T21:12:36.304Z,14.03
2018-04-18T21:15:04.460Z,11.17
2018-04-18T21:17:32.655Z,15.00
2018-04-18T21:20:00.791Z,11.87
2018-04-18T21:22:28.926Z,10.77
2018-04-18T21:24:57.079Z,9.67
2018-04-18T21:27:25.225Z,15.20
2018-04-18T21:29:53.542Z,7.97
2018-04-18T21:32:21.759Z,17.30
2018-04-18T21:34:50.746Z,19.57
2018-04-18T21:37:18.962Z,11.43
2018-04-18T21:39:47.121Z,15.90
2018-04-18T21:42:15.250Z,11.90
2018-04-18T21:44:43.409Z,18.40
2018-04-18T21:47:11.554Z,20.03
2018-04-18T21:49:39.712Z,11.43
2018-04-18T21:52:07.859Z,17.90
2018-04-18T21:54:36.022Z,14.80
2018-04-18T21:57:04.167Z,18.57
2018-04-18T21:59:32.335Z,20.97
2018-04-18T22:02:00.510Z,17.73
2018-04-18T22:04:28.687Z,14.03
2018-04-18T22:06:57.310Z,15.57
2018-04-18T22:09:25.483Z,16.53
2018-04-18T22:11:53.754Z,21.70
2018-04-18T22:14:21.912Z,15.70
2018-04-18T22:16:50.121Z,17.70
2018-04-18T22:19:18.256Z,20.20
2018-04-18T22:21:46.410Z,15.17
2018-04-18T22:24:14.579Z,22.50
2018-04-18T22:26:42.719Z,12.43
2018-04-18T22:29:10.878Z,17.10
2018-04-18T22:31:39.777Z,15.70
2018-04-18T22:34:08.090Z,19.03
2018-04-18T22:36:36.245Z,13.70
2018-04-18T22:39:04.527Z,20.10
2018-04-18T22:41:32.699Z,18.40
2018-04-18T22:44:00.913Z,15.87
2018-04-18T22:46:29.044Z,18.60
2018-04-18T22:48:57.244Z,17.47
2018-04-18T22:51:25.393Z,16.77
2018-04-18T22:53:53.556Z,14.67
2018-04-18T22:56:21.702Z,22.77
2018-04-18T22:58:50.631Z,17.47
2018-04-18T23:01:18.801Z,14.23
2018-04-18T23:03:46.952Z,20.33
2018-04-18T23:06:15.102Z,14.90
2018-04-18T23:08:43.289Z,27.27
2018-04-18T23:11:12.189Z,21.63
2018-04-18T23:13:40.397Z,23.80
2018-04-18T23:16:08.586Z,20.70
2018-04-18T23:18:36.800Z,22.33
2018-04-18T23:21:04.945Z,17.90
2018-04-18T23:23:33.090Z,14.47
2018-04-18T23:26:01.237Z,22.30
2018-04-18T23:28:29.379Z,24.10
2018-04-18T23:30:58.319Z,20.43
2018-04-18T23:33:26.444Z,16.30
2018-04-18T23:35:54.611Z,24.83
2018-04-18T23:38:23.579Z,18.07
2018-04-18T23:40:51.738Z,18.57
2018-04-18T23:43:19.875Z,22.93
2018-04-18T23:45:48.030Z,14.57
2018-04-18T23:48:16.942Z,20.60
2018-04-18T23:50:45.115Z,26.27
2018-04-18T23:53:13.294Z,17.43
2018-04-18T23:55:41.500Z,22.57
2018-04-18T23:58:09.643Z,18.07
